Data for 10/04/2007

Time Sea-Level Adjusted Pressure Absolute Pressure Temperature Relative Humidity Dew Point   
(mb) (inHg) (mb) (inHg) (C) (F) (%) (C) (F)
00:05 1013 29.91 842 24.86 4 39.2 77 0.3 32.6
00:10 1013 29.91 842 24.86 4 39.1 76 0.2 32.4
00:15 1013 29.91 842 24.86 3.9 39.1 77 0.3 32.6
00:20 1013 29.91 842 24.86 3.9 39 77 0.3 32.5
00:25 1013 29.91 842 24.86 3.9 39 76 0.1 32.1
00:30 1012 29.88 842 24.86 3.9 39 72 -0.7 30.7
00:35 1012 29.88 842 24.86 3.9 39 78 0.3 32.5
00:40 1012 29.88 842 24.86 3.8 38.8 80 0.6 33.1
00:45 1012 29.88 842 24.86 3.6 38.4 80 0.4 32.8
00:50 1012 29.88 842 24.86 3.3 38 80 0.2 32.3
00:55 1012 29.88 842 24.86 3.2 37.8 79 -0 32
01:00 1012 29.88 842 24.86 3.2 37.8 79 -0.1 31.8
01:05 1012 29.88 841 24.83 3.2 37.8 80 0.1 32.2
01:10 1012 29.88 842 24.86 3.2 37.7 81 0.3 32.5
01:15 1012 29.88 842 24.86 3 37.3 81 0.1 32.1
01:20 1012 29.88 842 24.86 3 37.3 79 -0.3 31.5
01:25 1012 29.88 842 24.86 3 37.4 77 -0.6 30.9
01:30 1012 29.88 842 24.86 3.1 37.6 77 -0.5 31.1
01:35 1013 29.91 842 24.86 3.1 37.7 78 -0.4 31.3
01:40 1013 29.91 842 24.86 3.1 37.6 79 -0.3 31.5
01:45 1013 29.91 842 24.86 2.9 37.2 80 -0.2 31.6
01:50 1013 29.91 842 24.86 2.7 36.9 79 -0.5 31.1
01:55 1013 29.91 842 24.86 2.7 36.9 79 -0.5 31.2
02:00 1013 29.91 842 24.86 2.7 36.8 79 -0.6 30.9
02:05 1013 29.91 842 24.86 2.6 36.7 79 -0.7 30.7
02:10 1013 29.91 842 24.86 2.6 36.7 78 -0.8 30.6
02:15 1013 29.91 842 24.86 2.6 36.8 78 -0.8 30.5
02:20 1013 29.91 842 24.86 2.6 36.7 78 -0.8 30.6
02:25 1013 29.91 842 24.86 2.6 36.7 78 -0.9 30.4
02:30 1013 29.91 842 24.86 2.6 36.6 78 -0.8 30.5
02:35 1013 29.91 842 24.86 2.4 36.3 80 -0.8 30.6
02:40 1013 29.91 842 24.86 2.2 36 80 -0.9 30.4
02:45 1013 29.91 842 24.86 2.2 36 79 -1 30.2
02:50 1013 29.91 842 24.86 2.2 36 79 -1.1 30
02:55 1013 29.91 842 24.86 2.2 36 77 -1.3 29.6
03:00 1013 29.91 842 24.86 2.3 36.2 76 -1.5 29.4
03:05 1013 29.91 842 24.86 2.3 36.2 76 -1.5 29.2
03:10 1013 29.91 842 24.86 2.5 36.5 75 -1.6 29.2
03:15 1013 29.91 842 24.86 2.5 36.5 76 -1.4 29.6
03:20 1013 29.91 842 24.86 2.4 36.3 76 -1.4 29.4
03:25 1013 29.91 842 24.86 2.3 36.1 77 -1.3 29.6
03:30 1013 29.91 842 24.86 2.2 36 78 -1.3 29.7
03:35 1013 29.91 842 24.86 2.1 35.8 78 -1.3 29.6
03:40 1013 29.91 842 24.86 2 35.7 78 -1.3 29.6
03:45 1013 29.91 842 24.86 1.9 35.5 78 -1.5 29.4
03:50 1013 29.91 842 24.86 1.8 35.3 80 -1.3 29.6
03:55 1013 29.91 842 24.86 1.7 35 80 -1.3 29.6
04:00 1013 29.91 842 24.86 1.7 35 80 -1.5 29.3
04:05 1013 29.91 842 24.86 1.7 35.1 79 -1.5 29.4
04:10 1013 29.91 842 24.86 1.9 35.3 80 -1.3 29.7
04:15 1013 29.91 842 24.86 1.9 35.4 80 -1.2 29.8
04:20 1013 29.91 842 24.86 1.8 35.2 80 -1.3 29.7
04:25 1013 29.91 842 24.86 1.6 34.9 82 -1.2 29.9
04:30 1013 29.91 842 24.86 1.4 34.6 83 -1.2 29.8
04:35 1013 29.91 842 24.86 1.3 34.4 82 -1.5 29.4
04:40 1013 29.91 842 24.86 1.4 34.6 80 -1.7 28.9
04:45 1013 29.91 842 24.86 1.6 34.9 79 -1.7 28.9
04:50 1013 29.91 842 24.86 1.9 35.3 78 -1.7 29
04:55 1013 29.91 842 24.86 1.9 35.3 78 -1.5 29.2
05:00 1013 29.91 842 24.86 1.7 35.1 77 -1.8 28.7
05:05 1013 29.91 842 24.86 1.6 34.9 77 -2 28.4
05:10 1013 29.91 842 24.86 1.7 35 75 -2.3 27.9
05:15 1013 29.91 842 24.86 1.8 35.2 76 -2 28.5
05:20 1013 29.91 842 24.86 1.8 35.3 76 -2.1 28.3
05:25 1013 29.91 842 24.86 1.7 35.1 77 -1.9 28.5
05:30 1013 29.91 842 24.86 1.5 34.8 78 -1.9 28.6
05:35 1013 29.91 842 24.86 1.5 34.6 79 -1.9 28.6
05:40 1013 29.91 842 24.86 1.5 34.6 78 -2 28.4
05:45 1013 29.91 842 24.86 1.5 34.6 78 -2 28.3
05:50 1013 29.91 842 24.86 1.3 34.3 77 -2.3 27.8
05:55 1013 29.91 842 24.86 1.3 34.3 78 -2.2 28.1
06:00 1013 29.91 842 24.86 1.2 34.2 77 -2.3 27.8
06:05 1013 29.91 842 24.86 1.3 34.3 77 -2.4 27.7
06:10 1013 29.91 842 24.86 1.3 34.4 76 -2.5 27.6
06:15 1013 29.91 842 24.86 1.3 34.4 77 -2.2 28.1
06:20 1013 29.91 842 24.86 1.3 34.4 78 -2 28.3
06:25 1013 29.91 842 24.86 1.3 34.4 78 -2.1 28.2
06:30 1013 29.91 842 24.86 1.4 34.5 79 -1.9 28.6
06:35 1013 29.91 842 24.86 1.4 34.5 80 -1.7 29
06:40 1013 29.91 842 24.86 1.3 34.3 80 -1.8 28.8
06:45 1013 29.91 842 24.86 1.2 34.2 80 -1.8 28.7
06:50 1013 29.91 842 24.86 1.3 34.3 81 -1.6 29.1
06:55 1012 29.88 842 24.86 1.5 34.7 79 -1.7 29
07:00 1012 29.88 842 24.86 1.7 35.1 80 -1.3 29.6
07:05 1012 29.88 842 24.86 1.4 34.6 82 -1.3 29.6
07:10 1013 29.91 842 24.86 0.8 33.5 84 -1.5 29.3
07:15 1013 29.91 842 24.86 0.3 32.6 86 -1.8 28.7
07:20 1013 29.91 842 24.86 0.5 32.8 84 -1.9 28.5
07:25 1013 29.91 842 24.86 0.9 33.6 80 -2.2 28
07:30 1013 29.91 842 24.86 1.5 34.6 79 -1.8 28.8
07:35 1013 29.91 842 24.86 1.4 34.6 79 -1.7 28.9
07:40 1013 29.91 842 24.86 1.4 34.5 78 -2 28.4
07:45 1013 29.91 842 24.86 1.4 34.5 78 -2 28.3
07:50 1013 29.91 842 24.86 1.4 34.4 81 -1.5 29.3
07:55 1013 29.91 842 24.86 1 33.8 82 -1.7 29
08:00 1013 29.91 842 24.86 0.8 33.5 84 -1.5 29.3
08:05 1013 29.91 842 24.86 0.7 33.2 82 -2.1 28.3
08:10 1013 29.91 842 24.86 1 33.7 77 -2.7 27.2
08:15 1013 29.91 842 24.86 1.1 34 82 -1.7 28.9
08:20 1013 29.91 842 24.86 1.2 34.1 81 -1.8 28.7
08:25 1013 29.91 842 24.86 1.3 34.4 80 -1.7 29
08:30 1013 29.91 842 24.86 1.3 34.4 80 -1.8 28.7
08:35 1013 29.91 842 24.86 1.6 34.8 78 -1.9 28.5
08:40 1013 29.91 842 24.86 1.7 35 75 -2.4 27.8
08:45 1013 29.91 842 24.86 2.2 35.9 70 -2.7 27.2
08:50 1013 29.91 842 24.86 2.8 37.1 70 -2.1 28.2
08:55 1013 29.91 842 24.86 3 37.3 72 -1.5 29.3
09:00 1013 29.91 842 24.86 3.3 37.9 71 -1.4 29.4
09:05 1013 29.91 842 24.86 3.5 38.3 72 -1.1 30
09:10 1013 29.91 842 24.86 3.7 38.7 69 -1.4 29.6
09:15 1013 29.91 842 24.86 4 39.2 70 -1 30.2
09:20 1013 29.91 842 24.86 4.2 39.6 69 -0.8 30.5
09:25 1013 29.91 842 24.86 4.5 40.1 69 -0.6 30.9
09:30 1013 29.91 842 24.86 4.4 39.8 71 -0.4 31.3
09:35 1013 29.91 842 24.86 4.3 39.7 71 -0.6 31
09:40 1013 29.91 842 24.86 4.8 40.6 69 -0.4 31.3
09:45 1013 29.91 842 24.86 5.2 41.4 68 -0.1 31.8
09:50 1013 29.91 842 24.86 5.6 42.2 69 0.5 32.9
09:55 1013 29.91 842 24.86 5.7 42.2 70 0.5 33
10:00 1013 29.91 842 24.86 5.6 42 71 0.7 33.3
10:05 1013 29.91 842 24.86 5.7 42.3 68 0.3 32.5
10:10 1013 29.91 842 24.86 5.8 42.4 70 0.7 33.2
10:15 1013 29.91 842 24.86 5.5 42 71 0.7 33.2
10:20 1013 29.91 842 24.86 5.8 42.4 69 0.5 32.9
10:25 1013 29.91 842 24.86 6 42.8 68 0.6 33.1
10:30 1013 29.91 842 24.86 6.1 43 68 0.8 33.4
10:35 1013 29.91 842 24.86 6.3 43.3 67 0.5 32.9
10:40 1013 29.91 842 24.86 6.1 42.9 69 0.9 33.5
10:45 1013 29.91 842 24.86 6.1 42.9 68 0.7 33.3
10:50 1013 29.91 842 24.86 6.1 43 68 0.7 33.3
10:55 1013 29.91 842 24.86 6.3 43.3 68 0.8 33.5
11:00 1013 29.91 842 24.86 6.5 43.7 67 0.7 33.3
11:05 1013 29.91 842 24.86 7 44.7 63 0.6 33.1
11:10 1013 29.91 842 24.86 7.4 45.3 62 0.7 33.3
11:15 1013 29.91 842 24.86 7.5 45.5 63 0.9 33.7
11:20 1013 29.91 842 24.86 7.7 45.9 62 0.8 33.5
11:25 1013 29.91 842 24.86 7.8 46 59 0.4 32.7
11:30 1013 29.91 842 24.86 8.1 46.5 57 0.1 32.2
11:35 1012 29.88 842 24.86 7.8 46.1 59 0.3 32.5
11:40 1012 29.88 842 24.86 7.6 45.7 59 0.2 32.3
11:45 1012 29.88 842 24.86 7.2 44.9 61 0.1 32.2
11:50 1012 29.88 842 24.86 7.9 46.2 55 -0.4 31.2
11:55 1012 29.88 842 24.86 9 48.1 52 -0.3 31.4
12:00 1012 29.88 842 24.86 8.7 47.6 54 -0.2 31.6
12:05 1012 29.88 841 24.83 8.4 47.1 55 -0.1 31.8
12:10 1012 29.88 841 24.83 8.2 46.8 55 -0.2 31.7
12:15 1012 29.88 841 24.83 8.6 47.5 52 -0.6 30.9
12:20 1012 29.88 841 24.83 9.1 48.3 52 -0.3 31.5
12:25 1012 29.88 841 24.83 8.8 47.9 54 -0 31.9
12:30 1012 29.88 841 24.83 9.4 48.9 52 -0.1 31.9
12:35 1012 29.88 841 24.83 9.2 48.6 52 -0 32
12:40 1012 29.88 841 24.83 9.5 49.1 51 -0.1 31.7
12:45 1012 29.88 841 24.83 10.4 50.7 50 0.5 32.9
12:50 1012 29.88 841 24.83 10.7 51.3 50 0.8 33.5
12:55 1012 29.88 841 24.83 10.8 51.5 49 0.6 33
13:00 1012 29.88 841 24.83 10.9 51.6 47 0.2 32.4
13:05 1012 29.88 841 24.83 11.2 52.1 46 0.1 32.2
13:10 1011 29.85 841 24.83 11.3 52.4 46 0.2 32.4
13:15 1012 29.88 841 24.83 11.1 52 46 -0.1 31.8
13:20 1011 29.85 841 24.83 11.5 52.6 45 -0 32
13:25 1011 29.85 840 24.81 11.7 53.1 44 -0.2 31.7
13:30 1011 29.85 840 24.81 11.4 52.5 49 1.1 34
13:35 1011 29.85 840 24.81 10.8 51.4 48 0.3 32.6
13:40 1011 29.85 840 24.81 11 51.7 47 0.2 32.4
13:45 1011 29.85 840 24.81 11.1 52 47 0.1 32.2
13:50 1011 29.85 840 24.81 10.8 51.4 49 0.6 33.1
13:55 1011 29.85 840 24.81 10.4 50.8 49 0.2 32.3
14:00 1011 29.85 840 24.81 10.3 50.6 49 0.2 32.3
14:05 1011 29.85 840 24.81 10.3 50.5 49 0.2 32.3
14:10 1011 29.85 840 24.81 10.4 50.8 51 0.6 33.2
14:15 1011 29.85 840 24.81 10.4 50.7 50 0.6 33.1
14:20 1011 29.85 840 24.81 10.2 50.4 50 0.3 32.5
14:25 1011 29.85 840 24.81 10.3 50.6 49 0.2 32.4
14:30 1011 29.85 840 24.81 10.2 50.3 51 0.4 32.7
14:35 1011 29.85 840 24.81 10.4 50.8 49 0.3 32.6
14:40 1011 29.85 840 24.81 10.3 50.5 50 0.4 32.8
14:45 1011 29.85 840 24.81 10.2 50.4 50 0.3 32.6
14:50 1011 29.85 840 24.81 10.1 50.1 52 0.7 33.2
14:55 1011 29.85 840 24.81 9.9 49.8 52 0.4 32.8
15:00 1011 29.85 840 24.81 9.9 49.8 53 0.7 33.3
15:05 1011 29.85 840 24.81 9.9 49.9 53 0.8 33.4
15:10 1011 29.85 840 24.81 9.9 49.8 52 0.6 33.1
15:15 1011 29.85 840 24.81 9.7 49.5 52 0.5 32.8
15:20 1011 29.85 840 24.81 9.6 49.4 53 0.6 33.1
15:25 1011 29.85 840 24.81 9.6 49.3 53 0.7 33.2
15:30 1011 29.85 840 24.81 9.7 49.5 52 0.5 32.9
15:35 1011 29.85 840 24.81 9.7 49.5 52 0.4 32.8
15:40 1010 29.83 840 24.81 9.7 49.5 53 0.6 33.1
15:45 1010 29.83 839 24.78 9.6 49.3 53 0.4 32.7
15:50 1010 29.83 840 24.81 9.7 49.5 54 0.9 33.6
15:55 1010 29.83 840 24.81 9.8 49.7 54 1 33.8
16:00 1010 29.83 840 24.81 9.8 49.7 54 1.1 33.9
16:05 1011 29.85 840 24.81 10 49.9 54 1 33.9
16:10 1011 29.85 840 24.81 9.9 49.7 54 1.1 34
16:15 1010 29.83 840 24.81 9.9 49.8 54 1.1 34
16:20 1010 29.83 840 24.81 9.8 49.6 54 0.8 33.5
16:25 1010 29.83 840 24.81 9.7 49.5 54 1 33.8
16:30 1010 29.83 840 24.81 9.6 49.3 54 0.9 33.6
16:35 1010 29.83 840 24.81 9.4 48.9 56 1.1 33.9
16:40 1010 29.83 840 24.81 9.3 48.7 57 1.1 34
16:45 1010 29.83 840 24.81 9.2 48.6 56 0.9 33.6
16:50 1010 29.83 840 24.81 9.2 48.5 56 0.9 33.7
16:55 1010 29.83 840 24.81 9.1 48.4 57 1.1 33.9
17:00 1010 29.83 839 24.78 9.1 48.3 57 1 33.7
17:05 1010 29.83 839 24.78 9 48.2 58 1.2 34.1
17:10 1010 29.83 839 24.78 9 48.1 58 1.3 34.3
17:15 1010 29.83 839 24.78 9 48.2 58 1.2 34.2
17:20 1010 29.83 840 24.81 8.9 48.1 57 1 33.8
17:25 1010 29.83 839 24.78 9 48.1 56 0.8 33.5
17:30 1010 29.83 839 24.78 9 48.3 55 0.6 33.1
17:35 1010 29.83 839 24.78 9 48.2 56 0.8 33.4
17:40 1010 29.83 840 24.81 9 48.2 57 0.9 33.6
17:45 1010 29.83 840 24.81 9 48.1 55 0.4 32.8
17:50 1010 29.83 840 24.81 8.9 48 54 0.2 32.4
17:55 1011 29.85 840 24.81 8.8 47.9 54 0.1 32.2
18:00 1011 29.85 840 24.81 8.7 47.7 53 -0.3 31.4
18:05 1010 29.83 840 24.81 8.6 47.6 53 -0.3 31.5
18:10 1010 29.83 839 24.78 8.6 47.4 53 -0.4 31.2
18:15 1010 29.83 839 24.78 8.5 47.3 53 -0.5 31.1
18:20 1010 29.83 839 24.78 8.4 47.1 54 -0.4 31.3
18:25 1010 29.83 839 24.78 8.3 47 54 -0.4 31.3
18:30 1010 29.83 839 24.78 8.2 46.8 55 -0.3 31.4
18:35 1010 29.83 839 24.78 8.1 46.7 56 -0.2 31.7
18:40 1010 29.83 839 24.78 8 46.5 56 -0.1 31.8
18:45 1010 29.83 839 24.78 7.9 46.3 57 -0.1 31.9
18:50 1010 29.83 839 24.78 7.9 46.2 57 0 32
18:55 1010 29.83 839 24.78 7.9 46.1 58 0.1 32.2
19:00 1010 29.83 839 24.78 7.8 46.1 59 0.4 32.6
19:05 1010 29.83 839 24.78 7.7 45.9 60 0.4 32.8
19:10 1010 29.83 839 24.78 7.7 45.9 60 0.4 32.7
19:15 1010 29.83 839 24.78 7.7 45.8 60 0.5 32.9
19:20 1010 29.83 839 24.78 7.6 45.7 61 0.6 33.1
19:25 1010 29.83 840 24.81 7.6 45.7 62 0.7 33.3
19:30 1010 29.83 839 24.78 7.5 45.6 62 0.7 33.2
19:35 1010 29.83 839 24.78 7.5 45.5 63 0.9 33.5
19:40 1010 29.83 839 24.78 7.5 45.4 64 1 33.9
19:45 1010 29.83 839 24.78 7.4 45.3 63 0.9 33.6
19:50 1010 29.83 839 24.78 7.4 45.3 63 0.9 33.6
19:55 1010 29.83 839 24.78 7.4 45.3 63 0.9 33.6
20:00 1010 29.83 839 24.78 7.4 45.3 64 1.1 34
20:05 1010 29.83 839 24.78 7.3 45.1 65 1.2 34.2
20:10 1010 29.83 839 24.78 7.3 45.1 66 1.3 34.3
20:15 1010 29.83 839 24.78 7.2 45 66 1.4 34.5
20:20 1010 29.83 839 24.78 7.2 44.9 67 1.4 34.5
20:25 1010 29.83 839 24.78 7.2 44.9 67 1.4 34.6
20:30 1010 29.83 839 24.78 7.2 44.9 67 1.5 34.7
20:35 1010 29.83 839 24.78 7.2 44.9 67 1.6 34.8
20:40 1010 29.83 839 24.78 7.2 44.9 68 1.6 34.9
20:45 1010 29.83 839 24.78 7.2 44.9 68 1.7 35.1
20:50 1010 29.83 839 24.78 7.1 44.8 69 1.9 35.4
20:55 1009 29.8 839 24.78 7 44.7 70 1.9 35.4
21:00 1010 29.83 839 24.78 7 44.6 70 1.9 35.4
21:05 1009 29.8 839 24.78 7 44.6 70 2 35.6
21:10 1009 29.8 839 24.78 7 44.6 71 2.1 35.9
21:15 1009 29.8 839 24.78 7 44.6 72 2.2 36
21:20 1009 29.8 839 24.78 6.9 44.5 73 2.4 36.3
21:25 1009 29.8 839 24.78 6.9 44.5 73 2.5 36.5
21:30 1010 29.83 839 24.78 6.9 44.4 74 2.5 36.6
21:35 1010 29.83 839 24.78 7 44.5 74 2.6 36.7
21:40 1010 29.83 839 24.78 6.9 44.5 74 2.6 36.7
21:45 1010 29.83 839 24.78 6.9 44.4 75 2.7 36.9
21:50 1010 29.83 839 24.78 6.8 44.3 75 2.8 37
21:55 1010 29.83 839 24.78 6.8 44.2 77 2.9 37.3
22:00 1010 29.83 839 24.78 6.7 44.1 77 2.9 37.3
22:05 1010 29.83 839 24.78 6.7 44.1 77 2.9 37.2
22:10 1010 29.83 839 24.78 6.7 44.1 77 2.9 37.3
22:15 1009 29.8 839 24.78 6.8 44.2 77 3 37.4
22:20 1009 29.8 839 24.78 6.8 44.2 77 3 37.3
22:25 1010 29.83 839 24.78 6.8 44.3 77 3 37.4
22:30 1010 29.83 839 24.78 6.8 44.3 77 3.1 37.7
22:35 1009 29.8 839 24.78 6.8 44.2 78 3.2 37.7
22:40 1009 29.8 838 24.75 6.7 44.1 79 3.3 37.9
22:45 1009 29.8 838 24.75 6.7 44 79 3.3 37.9
22:50 1010 29.83 839 24.78 6.7 44 80 3.4 38.1
22:55 1009 29.8 838 24.75 6.6 43.8 80 3.4 38.1
23:00 1009 29.8 838 24.75 6.5 43.6 80 3.3 37.9
23:05 1009 29.8 838 24.75 6.4 43.5 80 3.1 37.7
23:10 1009 29.8 838 24.75 6.3 43.4 80 3.1 37.6
23:15 1009 29.8 838 24.75 6.3 43.3 80 3.1 37.5
23:20 1009 29.8 838 24.75 6.2 43.1 80 2.9 37.3
23:25 1009 29.8 838 24.75 6 42.8 80 2.9 37.2
23:30 1009 29.8 838 24.75 5.9 42.7 80 2.8 37
23:35 1009 29.8 838 24.75 5.9 42.5 80 2.7 36.8
23:40 1009 29.8 838 24.75 5.9 42.5 80 2.6 36.8
23:45 1009 29.8 838 24.75 5.8 42.4 80 2.7 36.8
23:50 1009 29.8 838 24.75 5.7 42.2 81 2.7 36.8
23:55 1009 29.8 838 24.75 5.6 42.1 82 2.7 36.9
24:00 1009 29.8 838 24.75 5.5 41.9 83 2.9 37.2